Time;durP1;ratioP1;P1;durP2;ratioP2;P2;SDS_P1;SDS_P2;PMS_P1;PMS_P2;Temp;Humidity;BMP_temperature;BMP_pressure;BME280_temperature;BME280_humidity;BME280_pressure;Samples;Min_cycle;Max_cycle;Signal;HPM_P1;HPM_P2
2022/01/13 00:00:32;;;;;;;207.60;52.80;;;;;;;2.71;100.00;104087.34;5040219;28;20458;-74
2022/01/13 00:02:58;;;;;;;212.50;56.10;;;;;;;2.59;100.00;104088.69;5056841;28;20454;-74
2022/01/13 00:05:28;;;;;;;252.27;58.85;;;;;;;2.61;100.00;104090.22;5058571;28;20068;-74
2022/01/13 00:07:55;;;;;;;234.38;56.92;;;;;;;2.70;100.00;104089.19;5058374;28;20359;-75
2022/01/13 00:10:22;;;;;;;236.43;58.22;;;;;;;2.72;100.00;104087.19;5057543;28;20396;-74
2022/01/13 00:12:56;;;;;;;248.13;59.05;;;;;;;2.68;100.00;104091.22;5056881;28;20040;-75
2022/01/13 00:15:37;;;;;;;231.35;58.38;;;;;;;2.67;100.00;104084.16;5058204;28;20107;-73
2022/01/13 00:18:10;;;;;;;244.15;59.42;;;;;;;2.67;100.00;104086.84;5056520;28;20075;-76
2022/01/13 00:20:59;;;;;;;231.68;54.97;;;;;;;2.60;100.00;104075.06;5058121;28;20048;-73
2022/01/13 00:26:13;;;;;;;245.77;58.38;;;;;;;2.56;100.00;104070.19;5058742;28;20044;-74
2022/01/13 00:28:38;;;;;;;228.20;59.47;;;;;;;2.59;100.00;104064.44;5058014;28;20035;-75
2022/01/13 00:31:06;;;;;;;255.73;57.50;;;;;;;2.60;100.00;104076.94;5056224;28;20044;-74
2022/01/13 00:33:32;;;;;;;268.83;60.90;;;;;;;2.59;100.00;104075.22;5057739;28;20044;-75
2022/01/13 00:35:59;;;;;;;234.80;59.58;;;;;;;2.57;100.00;104075.41;5056379;28;20060;-75
2022/01/13 00:38:28;;;;;;;251.55;56.78;;;;;;;2.47;100.00;104067.53;5055155;28;20523;-74
2022/01/13 00:40:54;;;;;;;260.67;59.75;;;;;;;2.58;100.00;104060.94;5056017;28;20060;-74
2022/01/13 00:43:20;;;;;;;266.73;59.65;;;;;;;2.66;100.00;104060.91;5057971;28;20067;-74
2022/01/13 00:45:47;;;;;;;245.88;57.72;;;;;;;2.60;100.00;104068.84;5058120;28;20076;-73
2022/01/13 00:48:13;;;;;;;263.83;60.72;;;;;;;2.48;100.00;104068.38;5058201;28;20044;-75
2022/01/13 00:50:39;;;;;;;264.73;56.67;;;;;;;2.46;100.00;104067.69;5058704;28;20094;-73
2022/01/13 00:53:04;;;;;;;258.02;58.20;;;;;;;2.44;100.00;104075.06;5058151;28;20043;-74
2022/01/13 00:55:44;;;;;;;239.95;56.92;;;;;;;2.43;100.00;104071.56;5057683;28;20675;-74
2022/01/13 00:58:10;;;;;;;251.38;57.30;;;;;;;2.46;100.00;104076.59;5055187;28;20040;-74
2022/01/13 01:00:36;;;;;;;236.60;58.00;;;;;;;2.45;100.00;104074.09;5056634;28;20472;-74
2022/01/13 01:03:01;;;;;;;268.63;59.80;;;;;;;2.40;100.00;104079.97;5057177;28;20041;-74
2022/01/13 01:05:27;;;;;;;233.77;55.80;;;;;;;2.35;100.00;104076.09;5056028;28;20512;-75
2022/01/13 01:07:52;;;;;;;227.48;52.78;;;;;;;2.45;100.00;104074.09;5038819;28;20044;-75
2022/01/13 01:10:19;;;;;;;224.00;53.63;;;;;;;2.44;100.00;104078.66;5056712;28;20131;-74
2022/01/13 01:12:44;;;;;;;208.93;53.80;;;;;;;2.40;100.00;104079.13;5056635;28;20579;-74
2022/01/13 01:15:11;;;;;;;211.60;53.10;;;;;;;2.44;100.00;104072.38;5053896;28;20044;-74
2022/01/13 01:17:43;;;;;;;208.02;53.20;;;;;;;2.46;100.00;104071.22;5055579;28;20036;-74
2022/01/13 01:20:09;;;;;;;224.35;54.38;;;;;;;2.51;100.00;104068.03;5057518;28;20040;-74
2022/01/13 01:22:42;;;;;;;220.50;56.28;;;;;;;2.46;100.00;104070.38;5056736;28;20039;-74
2022/01/13 01:27:38;;;;;;;204.55;52.65;;;;;;;2.61;100.00;104067.81;5056806;28;20045;-74
2022/01/13 01:33:00;;;;;;;307.60;66.15;;;;;;;2.52;100.00;104058.91;5043059;28;20056;-73
2022/01/13 01:35:27;;;;;;;309.80;64.72;;;;;;;2.56;100.00;104060.28;5057519;28;20040;-74
2022/01/13 01:37:53;;;;;;;292.08;65.28;;;;;;;2.59;100.00;104065.31;5055331;28;20079;-74
2022/01/13 01:40:20;;;;;;;338.92;68.90;;;;;;;2.51;100.00;104070.72;5055337;28;20123;-74
2022/01/13 01:42:46;;;;;;;294.92;63.45;;;;;;;2.48;100.00;104071.88;5056202;28;20527;-74
2022/01/13 01:45:13;;;;;;;287.00;62.95;;;;;;;2.54;100.00;104070.38;5054677;28;20131;-73
2022/01/13 01:47:40;;;;;;;356.45;65.63;;;;;;;2.44;100.00;104072.38;5055825;28;20056;-72
2022/01/13 01:50:18;;;;;;;310.30;66.80;;;;;;;2.46;100.00;104065.00;5059132;28;20484;-73
2022/01/13 01:52:48;;;;;;;321.08;67.72;;;;;;;2.41;100.00;104068.19;5060061;28;20083;-74
2022/01/13 01:55:14;;;;;;;346.33;68.63;;;;;;;2.44;100.00;104067.88;5059209;28;20040;-74
2022/01/13 01:57:42;;;;;;;304.00;64.35;;;;;;;2.40;100.00;104069.19;5058899;28;20045;-74
2022/01/13 02:00:12;;;;;;;327.55;65.40;;;;;;;2.41;100.00;104068.19;5041560;28;20044;-73
2022/01/13 02:02:43;;;;;;;360.80;69.63;;;;;;;2.48;100.00;104065.66;5060128;28;20478;-75
2022/01/13 02:05:08;;;;;;;367.08;71.63;;;;;;;2.34;100.00;104061.81;5060293;28;20461;-75
2022/01/13 02:07:34;;;;;;;406.42;72.72;;;;;;;2.36;100.00;104062.47;5059608;28;20548;-74
2022/01/13 02:09:59;;;;;;;314.88;66.00;;;;;;;2.36;100.00;104056.25;5059633;28;20068;-74
2022/01/13 02:12:33;;;;;;;299.65;62.05;;;;;;;2.49;100.00;104049.31;5040419;28;20443;-74
2022/01/13 02:15:16;;;;;;;300.83;65.82;;;;;;;2.40;100.00;104054.91;5042091;28;20520;-74
2022/01/13 02:17:43;;;;;;;283.95;62.80;;;;;;;2.44;100.00;104058.91;5057392;28;20098;-74
2022/01/13 02:20:15;;;;;;;276.10;62.00;;;;;;;2.39;100.00;104064.00;5054019;28;20158;-73
2022/01/13 02:22:40;;;;;;;256.38;60.22;;;;;;;2.37;100.00;104061.47;5057471;28;20076;-72
2022/01/13 02:25:06;;;;;;;292.20;59.25;;;;;;;2.20;100.00;104060.63;5059642;28;20044;-74
2022/01/13 02:27:32;;;;;;;252.30;55.70;;;;;;;2.33;100.00;104059.25;5060468;28;20560;-73
2022/01/13 02:29:57;;;;;;;252.52;55.22;;;;;;;2.29;100.00;104063.31;5059424;28;20377;-74
2022/01/13 02:32:22;;;;;;;264.25;57.55;;;;;;;2.33;100.00;104061.94;5057916;28;20048;-74
2022/01/13 02:34:48;;;;;;;265.33;56.70;;;;;;;2.33;100.00;104059.25;5059607;28;20032;-75
2022/01/13 02:37:14;;;;;;;244.82;54.35;;;;;;;2.29;100.00;104064.16;5057494;28;20062;-74
2022/01/13 02:39:41;;;;;;;285.70;56.28;;;;;;;2.29;100.00;104058.75;5057992;28;20055;-74
2022/01/13 02:42:12;;;;;;;290.00;56.67;;;;;;;2.28;100.00;104061.66;5059367;28;20047;-75
2022/01/13 02:45:18;;;;;;;266.27;57.22;;;;;;;2.33;100.00;104070.03;5057710;28;20224;-75
2022/01/13 02:47:59;;;;;;;299.65;60.25;;;;;;;2.38;100.00;104060.44;5055999;28;20056;-74
2022/01/13 02:50:19;;;;;;;256.67;57.45;;;;;;;2.27;100.00;104060.81;5056154;28;20046;-76
2022/01/13 02:52:44;;;;;;;281.65;55.35;;;;;;;2.29;100.00;104055.25;5057901;28;20499;-73
2022/01/13 02:55:10;;;;;;;259.50;56.47;;;;;;;2.24;100.00;104059.28;5057224;28;20477;-74
2022/01/13 02:57:38;;;;;;;312.83;58.42;;;;;;;2.23;100.00;104054.06;5057952;28;20036;-74
2022/01/13 03:00:07;;;;;;;285.05;58.17;;;;;;;2.22;100.00;104053.22;5058240;28;20051;-74
2022/01/13 03:02:33;;;;;;;267.20;59.00;;;;;;;2.30;100.00;104064.97;5056561;28;20068;-74
2022/01/13 03:04:59;;;;;;;324.73;61.28;;;;;;;2.29;100.00;104052.53;5056505;28;20039;-75
2022/01/13 03:07:26;;;;;;;324.25;62.22;;;;;;;2.25;100.00;104047.50;5059195;28;20044;-74
2022/01/13 03:09:51;;;;;;;286.98;58.63;;;;;;;2.35;100.00;104041.09;5057498;28;20290;-74
2022/01/13 03:12:17;;;;;;;368.27;62.60;;;;;;;2.27;100.00;104039.25;5058657;28;20064;-74
2022/01/13 03:14:42;;;;;;;369.50;63.90;;;;;;;2.32;100.00;104036.03;5058485;28;20216;-74
2022/01/13 03:17:07;;;;;;;380.38;65.97;;;;;;;2.29;100.00;104039.06;5059065;28;20036;-75
2022/01/13 03:19:33;;;;;;;378.48;67.68;;;;;;;2.30;100.00;104032.66;5058547;28;20033;-73
2022/01/13 03:21:58;;;;;;;389.67;67.32;;;;;;;2.32;100.00;104030.66;5058875;28;20818;-72
2022/01/13 03:24:24;;;;;;;350.15;62.30;;;;;;;2.44;100.00;104021.22;5056295;28;20044;-72
2022/01/13 03:26:50;;;;;;;348.42;60.90;;;;;;;2.42;100.00;104031.34;5057514;28;20148;-74
2022/01/13 03:29:18;;;;;;;367.50;64.25;;;;;;;2.43;100.00;104033.00;5058355;28;20044;-74
2022/01/13 03:31:45;;;;;;;377.40;62.38;;;;;;;2.48;100.00;104020.72;5058343;28;20051;-73
2022/01/13 03:34:13;;;;;;;283.23;56.75;;;;;;;2.48;100.00;104025.25;5059124;28;20040;-73
2022/01/13 03:36:40;;;;;;;369.75;62.88;;;;;;;2.42;100.00;104020.56;5057626;28;20086;-75
2022/01/13 03:39:07;;;;;;;340.25;59.03;;;;;;;2.45;100.00;104026.44;5058152;28;20335;-74
2022/01/13 03:41:34;;;;;;;399.73;67.47;;;;;;;2.38;100.00;104029.97;5058135;28;20044;-73
2022/01/13 03:44:05;;;;;;;378.10;62.83;;;;;;;2.32;100.00;104025.28;5057595;28;20149;-73
2022/01/13 03:46:32;;;;;;;321.73;61.40;;;;;;;2.30;100.00;104022.78;5059557;28;20327;-75
2022/01/13 03:48:57;;;;;;;324.38;64.40;;;;;;;2.25;100.00;104020.56;5059374;28;20177;-74
2022/01/13 03:51:22;;;;;;;383.85;65.63;;;;;;;2.23;100.00;104021.75;5058353;28;20109;-73
2022/01/13 03:54:03;;;;;;;393.73;67.43;;;;;;;2.20;100.00;104014.84;5058967;28;20559;-74
2022/01/13 03:57:27;;;;;;;296.83;58.20;;;;;;;2.15;100.00;104019.91;5060175;28;20093;-74
2022/01/13 04:00:40;;;;;;;449.00;68.13;;;;;;;2.15;100.00;104014.53;4979985;28;20042;-73
2022/01/13 04:03:06;;;;;;;438.98;69.07;;;;;;;2.21;100.00;104007.59;5067059;28;20359;-74
2022/01/13 04:05:31;;;;;;;310.20;60.90;;;;;;;2.25;100.00;104008.97;5069377;28;20148;-74
2022/01/13 04:07:56;;;;;;;420.15;66.20;;;;;;;2.20;100.00;104014.00;5069980;28;20028;-74
2022/01/13 04:10:28;;;;;;;261.67;54.92;;;;;;;2.34;100.00;104007.94;5071222;28;20045;-74
2022/01/13 04:12:55;;;;;;;350.23;57.33;;;;;;;2.15;100.00;104006.47;5069806;28;20032;-75
2022/01/13 04:15:23;;;;;;;346.38;57.50;;;;;;;2.14;100.00;104003.91;5069951;28;20052;-73
2022/01/13 04:17:48;;;;;;;319.63;55.85;;;;;;;2.11;100.00;103998.88;5069252;28;20055;-74
2022/01/13 04:20:14;;;;;;;395.40;60.88;;;;;;;2.09;100.00;104000.88;5065276;28;20040;-73
2022/01/13 04:22:40;;;;;;;273.98;49.70;;;;;;;2.03;100.00;103997.84;5062631;28;20037;-74
2022/01/13 04:25:06;;;;;;;255.45;48.95;;;;;;;2.12;100.00;103998.69;5063834;28;20047;-74
2022/01/13 04:27:36;;;;;;;284.45;48.90;;;;;;;2.17;100.00;103990.97;5062170;28;20044;-73
2022/01/13 04:30:32;;;;;;;240.02;47.90;;;;;;;1.99;100.00;103995.69;5061365;28;20049;-74
2022/01/13 04:32:56;;;;;;;271.00;50.00;;;;;;;2.13;100.00;104004.94;5060312;28;20139;-74
2022/01/13 04:35:22;;;;;;;320.98;52.72;;;;;;;2.07;100.00;104006.47;5059365;28;20052;-73
2022/01/13 04:37:47;;;;;;;322.75;53.58;;;;;;;1.99;100.00;104007.28;5044839;28;20196;-75
2022/01/13 04:40:13;;;;;;;242.88;48.55;;;;;;;2.19;100.00;103997.03;5045794;28;20138;-73
2022/01/13 04:42:42;;;;;;;321.00;53.78;;;;;;;2.15;100.00;104009.16;5049474;28;20132;-74
2022/01/13 04:45:07;;;;;;;263.02;48.50;;;;;;;2.16;100.00;104010.81;5051408;28;20040;-74
2022/01/13 04:47:33;;;;;;;235.13;46.88;;;;;;;2.24;100.00;104008.13;5046908;28;20071;-73
2022/01/13 04:49:58;;;;;;;272.40;49.70;;;;;;;2.21;100.00;104016.53;5061002;28;20040;-74
2022/01/13 04:52:24;;;;;;;293.05;48.83;;;;;;;2.18;100.00;104013.34;5070367;28;20033;-74
2022/01/13 04:54:49;;;;;;;210.18;44.30;;;;;;;2.14;100.00;104023.59;5067965;28;20036;-75
2022/01/13 04:57:17;;;;;;;266.27;47.60;;;;;;;2.22;100.00;104015.53;5074515;28;20037;-74
2022/01/13 04:59:44;;;;;;;272.20;46.78;;;;;;;2.12;100.00;104025.63;5072988;28;20040;-74
2022/01/13 05:02:10;;;;;;;332.45;49.10;;;;;;;2.17;100.00;104022.44;5072110;28;20427;-74
2022/01/13 05:04:35;;;;;;;267.83;44.50;;;;;;;2.13;100.00;104027.31;5068215;28;20258;-74
2022/01/13 05:07:01;;;;;;;270.85;46.05;;;;;;;2.14;100.00;104012.00;5068133;28;20032;-74
2022/01/13 05:09:26;;;;;;;265.00;42.97;;;;;;;2.18;100.00;104016.88;5069166;28;20598;-74
2022/01/13 05:11:52;;;;;;;346.52;53.03;;;;;;;2.22;100.00;104012.84;5064031;28;20901;-74
2022/01/13 05:14:17;;;;;;;297.48;49.45;;;;;;;2.21;100.00;104002.22;5059801;28;20036;-74
2022/01/13 05:16:56;;;;;;;224.38;43.50;;;;;;;2.26;100.00;104011.47;5058912;28;20464;-75
2022/01/13 05:19:29;;;;;;;289.05;49.55;;;;;;;2.29;100.00;104014.84;5058546;28;20063;-74
2022/01/13 05:24:24;;;;;;;254.15;47.72;;;;;;;2.21;100.00;104008.47;5062471;28;20089;-74
2022/01/13 05:26:50;;;;;;;227.07;46.47;;;;;;;2.25;100.00;104014.34;5063588;28;20123;-73
2022/01/13 05:29:19;;;;;;;217.38;44.60;;;;;;;2.24;100.00;104018.91;5063720;28;20805;-74
2022/01/13 05:31:45;;;;;;;236.45;43.38;;;;;;;2.23;100.00;104005.59;5053107;28;20457;-75
2022/01/13 05:34:11;;;;;;;261.08;49.35;;;;;;;2.11;100.00;104017.72;5047277;28;20310;-73
2022/01/13 05:36:36;;;;;;;268.75;47.35;;;;;;;2.10;100.00;103999.91;5044029;28;20060;-74
2022/01/13 05:39:02;;;;;;;192.52;42.00;;;;;;;2.12;100.00;104004.06;5047619;28;20052;-74
2022/01/13 05:41:28;;;;;;;252.32;43.08;;;;;;;2.08;100.00;103999.22;5053270;28;20047;-73
2022/01/13 05:43:53;;;;;;;232.35;42.10;;;;;;;2.16;100.00;103997.38;5064201;28;20040;-74
2022/01/13 05:46:19;;;;;;;208.98;45.15;;;;;;;2.04;100.00;104001.41;5064701;28;20374;-75
2022/01/13 05:48:44;;;;;;;209.98;41.97;;;;;;;1.90;100.00;103999.41;5050108;28;20056;-75
2022/01/13 05:51:09;;;;;;;212.02;42.60;;;;;;;2.08;100.00;104000.06;5056494;28;20040;-75
2022/01/13 05:53:35;;;;;;;217.75;42.13;;;;;;;2.05;100.00;104000.41;5057521;28;20432;-74
2022/01/13 05:56:00;;;;;;;163.63;37.40;;;;;;;2.03;100.00;103999.72;5046490;28;20621;-73
2022/01/13 05:58:26;;;;;;;200.95;37.53;;;;;;;2.06;100.00;104003.91;5059706;28;20098;-75
2022/01/13 06:00:51;;;;;;;180.13;37.28;;;;;;;2.08;100.00;104000.06;5043704;28;20803;-73
2022/01/13 06:03:16;;;;;;;227.25;42.75;;;;;;;2.01;100.00;103996.38;5050705;28;20459;-75
2022/01/13 06:05:42;;;;;;;185.05;39.75;;;;;;;2.01;100.00;103996.38;5041458;28;20037;-74
2022/01/13 06:08:07;;;;;;;165.32;38.15;;;;;;;2.12;100.00;103993.31;5049121;28;20037;-73
2022/01/13 06:10:33;;;;;;;173.15;37.92;;;;;;;2.11;100.00;103986.25;5043698;28;20406;-72
2022/01/13 06:12:58;;;;;;;200.20;41.95;;;;;;;2.12;100.00;103985.22;5044166;28;20041;-75
2022/01/13 06:15:25;;;;;;;218.57;43.97;;;;;;;2.00;100.00;103975.81;5047062;28;20045;-75
2022/01/13 06:17:54;;;;;;;190.43;40.92;;;;;;;2.12;100.00;103987.09;5044128;28;20044;-74
2022/01/13 06:20:20;;;;;;;220.38;42.30;;;;;;;2.13;100.00;103989.63;5033190;28;20053;-74
2022/01/13 06:22:47;;;;;;;214.90;42.67;;;;;;;2.04;100.00;103990.66;5065421;28;20044;-74
2022/01/13 06:25:14;;;;;;;165.15;36.40;;;;;;;2.06;100.00;103983.22;5055000;28;20040;-75
2022/01/13 06:27:40;;;;;;;201.05;37.05;;;;;;;1.97;100.00;103982.38;5046347;28;20360;-74
2022/01/13 06:30:10;;;;;;;193.40;37.03;;;;;;;1.99;100.00;103988.44;5051550;28;20571;-75
2022/01/13 06:32:36;;;;;;;156.35;33.67;;;;;;;2.07;100.00;103992.16;5044075;28;20442;-74
2022/01/13 06:35:03;;;;;;;140.52;31.58;;;;;;;2.01;100.00;103986.44;5042960;28;20507;-74
2022/01/13 06:37:28;;;;;;;151.32;32.92;;;;;;;2.01;100.00;103993.69;5039991;28;20037;-74
2022/01/13 06:39:53;;;;;;;157.07;31.27;;;;;;;2.07;100.00;103990.31;5041284;28;20139;-74
2022/01/13 06:42:19;;;;;;;138.98;31.67;;;;;;;1.98;100.00;103985.94;5039096;28;20041;-74
2022/01/13 06:44:44;;;;;;;146.18;29.88;;;;;;;1.94;100.00;103985.41;5038398;28;20045;-74
2022/01/13 06:47:10;;;;;;;137.57;30.40;;;;;;;1.92;100.00;103986.59;5041423;28;20087;-74
2022/01/13 06:49:36;;;;;;;142.15;30.40;;;;;;;1.98;100.00;103981.41;5047206;28;20113;-74
2022/01/13 06:52:02;;;;;;;139.35;28.70;;;;;;;2.00;100.00;103989.28;5044960;28;20120;-73
2022/01/13 06:54:28;;;;;;;142.32;29.05;;;;;;;1.94;100.00;104000.72;5050870;28;20080;-74
2022/01/13 06:56:54;;;;;;;167.45;33.85;;;;;;;1.89;100.00;103993.19;5040611;28;20455;-73
2022/01/13 06:59:20;;;;;;;162.85;31.55;;;;;;;1.86;100.00;103995.34;5039030;28;20144;-74
2022/01/13 07:01:47;;;;;;;167.60;31.48;;;;;;;1.88;100.00;103993.31;5040461;28;20150;-74
2022/01/13 07:04:13;;;;;;;156.88;31.35;;;;;;;1.90;100.00;103994.00;5050730;28;20033;-74
2022/01/13 07:06:40;;;;;;;142.80;30.65;;;;;;;2.05;100.00;103992.31;5040861;28;20075;-74
2022/01/13 07:09:09;;;;;;;189.45;34.28;;;;;;;1.93;100.00;103990.97;5041172;28;20564;-74
2022/01/13 07:11:35;;;;;;;162.38;30.42;;;;;;;1.93;100.00;103994.50;5038781;28;20780;-73
2022/01/13 07:14:01;;;;;;;158.55;30.92;;;;;;;1.97;100.00;103987.75;5040755;28;20065;-73
2022/01/13 07:16:27;;;;;;;174.00;31.73;;;;;;;1.91;100.00;103996.53;5045340;28;20316;-74
2022/01/13 07:18:53;;;;;;;134.88;27.83;;;;;;;1.97;100.00;103995.00;5059189;28;20048;-74
2022/01/13 07:21:20;;;;;;;180.95;30.92;;;;;;;1.94;100.00;103989.97;5059979;28;20048;-73
2022/01/13 07:23:47;;;;;;;152.32;29.70;;;;;;;1.99;100.00;103993.00;5058406;28;20428;-74
2022/01/13 07:26:12;;;;;;;147.45;27.95;;;;;;;1.98;100.00;103986.78;5060487;28;20477;-73
2022/01/13 07:28:38;;;;;;;124.95;27.73;;;;;;;2.05;100.00;103992.31;5059832;28;20044;-74
2022/01/13 07:31:04;;;;;;;152.85;28.92;;;;;;;1.89;100.00;103993.19;5058259;28;20033;-74
2022/01/13 07:33:29;;;;;;;142.50;27.27;;;;;;;1.94;100.00;103992.66;5059668;28;20845;-74
2022/01/13 07:35:55;;;;;;;175.73;32.95;;;;;;;1.96;100.00;103996.88;5059698;28;20037;-74
2022/01/13 07:38:20;;;;;;;173.82;30.58;;;;;;;2.06;100.00;103987.78;5060148;28;20446;-74
2022/01/13 07:40:47;;;;;;;165.20;30.55;;;;;;;2.00;100.00;103983.91;5059788;28;20036;-74
2022/01/13 07:43:13;;;;;;;140.25;28.40;;;;;;;2.01;100.00;103988.28;5057122;28;20109;-74
2022/01/13 07:45:38;;;;;;;175.15;30.88;;;;;;;2.04;100.00;103985.25;5057402;28;20040;-74
2022/01/13 07:48:05;;;;;;;158.45;30.17;;;;;;;1.91;100.00;103991.13;5058824;28;20413;-75
2022/01/13 07:50:31;;;;;;;135.48;29.30;;;;;;;1.99;100.00;103988.44;5058570;28;20044;-73
2022/01/13 07:52:56;;;;;;;128.38;26.95;;;;;;;2.08;100.00;103997.38;5060223;28;20078;-74
2022/01/13 07:55:22;;;;;;;158.60;29.77;;;;;;;2.06;100.00;103999.38;5058073;28;20041;-74
2022/01/13 07:57:47;;;;;;;129.90;28.77;;;;;;;2.14;100.00;104007.44;5058173;28;20719;-74
2022/01/13 08:00:13;;;;;;;128.93;28.02;;;;;;;2.12;100.00;104004.06;5059651;28;20515;-74
2022/01/13 08:02:40;;;;;;;137.48;27.80;;;;;;;2.08;100.00;104008.13;5059203;28;20508;-74
2022/01/13 08:05:07;;;;;;;120.05;27.52;;;;;;;2.09;100.00;104009.81;5057616;28;20044;-73
2022/01/13 08:07:32;;;;;;;113.57;26.88;;;;;;;2.17;100.00;104011.66;5040940;28;20044;-74
2022/01/13 08:09:58;;;;;;;134.70;28.05;;;;;;;2.08;100.00;104008.13;5057173;28;20044;-74
2022/01/13 08:12:23;;;;;;;139.00;27.63;;;;;;;2.12;100.00;104005.94;5057035;28;20482;-73
2022/01/13 08:14:50;;;;;;;139.02;28.55;;;;;;;2.03;100.00;104016.69;5056350;28;20481;-74
2022/01/13 08:19:45;;;;;;;122.82;28.05;;;;;;;2.11;100.00;104023.09;5055588;28;20166;-73
2022/01/13 08:20:05;;;;;;;142.18;30.02;;;;;;;2.06;100.00;104028.16;5058338;28;20125;-75
2022/01/13 08:22:32;;;;;;;108.03;27.20;;;;;;;2.10;100.00;104024.97;5056157;28;20045;-73
2022/01/13 08:24:57;;;;;;;119.88;28.17;;;;;;;2.19;100.00;104026.63;5058769;28;20045;-73
2022/01/13 08:27:23;;;;;;;124.45;26.05;;;;;;;2.23;100.00;104022.59;5058063;28;20032;-74
2022/01/13 08:29:48;;;;;;;158.55;30.33;;;;;;;2.15;100.00;104019.91;5056497;28;20497;-74
2022/01/13 08:32:13;;;;;;;121.57;29.13;;;;;;;2.24;100.00;104029.66;5058896;28;20706;-74
2022/01/13 08:34:39;;;;;;;144.77;28.50;;;;;;;2.31;100.00;104023.59;5058659;28;20139;-74
2022/01/13 08:37:05;;;;;;;111.47;26.33;;;;;;;2.34;100.00;104029.47;5056860;28;20481;-74
2022/01/13 08:39:37;;;;;;;106.00;26.30;;;;;;;2.36;100.00;104027.47;5057145;28;20477;-75
2022/01/13 08:42:03;;;;;;;115.38;27.48;;;;;;;2.39;100.00;104028.97;5057991;28;20510;-74
2022/01/13 08:44:28;;;;;;;135.63;29.23;;;;;;;2.33;100.00;104024.25;5055896;28;20265;-74
2022/01/13 08:46:54;;;;;;;124.82;27.55;;;;;;;2.45;100.00;104026.44;5058708;28;20040;-74
2022/01/13 08:49:19;;;;;;;151.18;30.85;;;;;;;2.51;100.00;104029.47;5058125;28;20053;-73
2022/01/13 08:51:44;;;;;;;138.43;31.55;;;;;;;2.37;100.00;104033.69;5046481;28;20037;-74
2022/01/13 08:54:10;;;;;;;129.50;29.52;;;;;;;2.33;100.00;104033.19;5037854;28;20072;-74
2022/01/13 08:56:36;;;;;;;128.63;30.55;;;;;;;2.35;100.00;104041.09;5045916;28;20442;-74
2022/01/13 08:59:02;;;;;;;135.40;29.27;;;;;;;2.30;100.00;104036.22;5045937;28;20048;-74
2022/01/13 09:01:29;;;;;;;121.72;28.73;;;;;;;2.55;100.00;104031.63;5040786;28;20106;-74
2022/01/13 09:03:54;;;;;;;112.88;28.02;;;;;;;2.43;100.00;104041.91;5052338;28;20643;-74
2022/01/13 09:06:20;;;;;;;120.45;27.98;;;;;;;2.53;100.00;104033.69;5056708;28;20389;-74
2022/01/13 09:08:46;;;;;;;112.32;27.08;;;;;;;2.60;100.00;104036.53;5050494;28;20485;-74
2022/01/13 09:11:11;;;;;;;113.38;28.88;;;;;;;2.52;100.00;104037.38;5039642;28;20607;-73
2022/01/13 09:13:38;;;;;;;132.20;28.75;;;;;;;2.49;100.00;104043.09;5039118;28;20060;-73
2022/01/13 09:16:13;;;;;;;117.90;28.13;;;;;;;2.65;100.00;104043.06;5043995;28;20052;-76
2022/01/13 09:18:58;;;;;;;134.43;31.83;;;;;;;2.58;100.00;104047.44;5041210;28;20029;-74
2022/01/13 09:21:27;;;;;;;110.20;28.90;;;;;;;2.74;100.00;104048.44;5043802;28;20041;-74
2022/01/13 09:23:54;;;;;;;134.05;29.45;;;;;;;2.69;100.00;104048.97;5047919;28;20037;-75
2022/01/13 09:26:19;;;;;;;115.60;30.58;;;;;;;2.73;100.00;104047.59;5039157;28;20079;-73
2022/01/13 09:28:45;;;;;;;145.60;31.23;;;;;;;2.79;100.00;104062.22;5058837;28;20479;-73
2022/01/13 09:31:10;;;;;;;117.03;29.30;;;;;;;2.76;100.00;104057.19;5057569;28;20048;-74
2022/01/13 09:33:36;;;;;;;128.00;29.58;;;;;;;2.74;100.00;104059.22;5056331;28;20637;-73
2022/01/13 09:36:04;;;;;;;116.53;29.77;;;;;;;2.67;100.00;104059.88;5055123;28;20052;-73
2022/01/13 09:38:29;;;;;;;111.82;29.08;;;;;;;2.77;100.00;104061.59;5051287;28;20091;-74
2022/01/13 09:40:55;;;;;;;118.35;28.05;;;;;;;2.70;100.00;104059.53;5047244;28;20130;-74
2022/01/13 09:43:22;;;;;;;98.30;27.38;;;;;;;2.71;100.00;104058.56;5054995;28;20087;-74
2022/01/13 09:45:49;;;;;;;90.85;24.50;;;;;;;2.91;100.00;104067.09;5056473;28;20761;-73
2022/01/13 09:48:15;;;;;;;98.10;27.10;;;;;;;2.87;100.00;104062.22;5056246;28;20040;-74
2022/01/13 09:50:43;;;;;;;96.85;28.83;;;;;;;3.10;100.00;104068.53;5054551;28;20141;-73
2022/01/13 09:53:08;;;;;;;102.30;29.52;;;;;;;3.07;100.00;104063.50;5038991;28;20041;-74
2022/01/13 09:55:34;;;;;;;121.43;28.73;;;;;;;3.00;100.00;104077.88;5056634;28;20041;-73
2022/01/13 09:58:03;;;;;;;121.90;29.30;;;;;;;3.14;100.00;104079.81;5055556;28;20125;-74
2022/01/13 10:00:29;;;;;;;118.57;28.90;;;;;;;3.06;100.00;104087.94;5057465;28;20045;-73
2022/01/13 10:02:55;;;;;;;142.07;31.25;;;;;;;2.81;100.00;104073.69;5055774;28;20110;-73
2022/01/13 10:05:22;;;;;;;160.25;32.58;;;;;;;2.85;100.00;104080.41;5056393;28;20041;-74
2022/01/13 10:07:50;;;;;;;119.72;29.05;;;;;;;3.01;100.00;104077.69;5055541;28;20040;-73
2022/01/13 10:10:18;;;;;;;133.77;31.50;;;;;;;2.91;100.00;104085.13;5057358;28;20319;-74
2022/01/13 10:12:58;;;;;;;138.30;30.45;;;;;;;2.93;100.00;104073.13;5060879;28;20147;-73
2022/01/13 10:18:07;;;;;;;133.13;30.17;;;;;;;3.01;100.00;104074.97;5041685;28;20382;-74
2022/01/13 10:20:33;;;;;;;102.72;27.35;;;;;;;3.12;100.00;104069.22;5040649;28;20040;-74
2022/01/13 10:23:06;;;;;;;112.90;30.02;;;;;;;3.19;100.00;104066.66;5040756;28;20037;-74
2022/01/13 10:25:37;;;;;;;135.43;31.08;;;;;;;3.24;100.00;104066.97;5039288;28;20069;-75
2022/01/13 10:28:19;;;;;;;112.35;26.85;;;;;;;3.37;100.00;104063.69;5057815;28;20046;-75
2022/01/13 10:30:50;;;;;;;102.80;26.30;;;;;;;3.21;100.00;104059.25;5060481;28;20068;-76
2022/01/13 10:33:25;;;;;;;128.68;29.00;;;;;;;3.09;100.00;104066.03;5058549;28;20091;-74
2022/01/13 10:35:54;;;;;;;101.32;26.45;;;;;;;3.05;100.00;104061.97;5060782;28;20409;-73
2022/01/13 10:38:20;;;;;;;94.50;24.92;;;;;;;3.12;100.00;104066.50;5059052;28;20036;-74
2022/01/13 10:40:49;;;;;;;91.82;26.70;;;;;;;3.09;100.00;104066.03;5059616;28;20537;-75
2022/01/13 10:43:16;;;;;;;92.07;25.05;;;;;;;3.39;100.00;104062.50;5060742;28;20097;-74
2022/01/13 10:45:52;;;;;;;93.70;26.10;;;;;;;3.31;100.00;104059.84;5058896;28;20443;-75
2022/01/13 10:48:23;;;;;;;105.93;27.73;;;;;;;3.24;100.00;104058.88;5059223;28;20122;-73
2022/01/13 10:50:56;;;;;;;100.78;26.92;;;;;;;3.31;100.00;104053.63;5060825;28;20036;-73
2022/01/13 10:53:29;;;;;;;109.53;28.63;;;;;;;3.18;100.00;104049.63;5051759;28;20051;-73
2022/01/13 10:56:01;;;;;;;94.35;27.08;;;;;;;3.21;100.00;104050.31;5033199;28;20036;-73
2022/01/13 10:58:35;;;;;;;90.72;24.83;;;;;;;3.20;100.00;104048.59;5050709;28;20401;-74
2022/01/13 11:01:02;;;;;;;105.82;28.50;;;;;;;3.33;100.00;104047.03;5038289;28;20200;-74
2022/01/13 11:03:31;;;;;;;98.82;27.42;;;;;;;3.23;100.00;104035.63;5043008;28;20032;-74
2022/01/13 11:06:00;;;;;;;86.00;26.98;;;;;;;3.22;100.00;104044.72;5043005;28;20045;-74
2022/01/13 11:08:33;;;;;;;109.05;28.33;;;;;;;3.17;100.00;104041.69;5043178;28;20047;-74
2022/01/13 11:11:03;;;;;;;121.60;29.95;;;;;;;3.12;100.00;104041.41;5039651;28;20093;-73
2022/01/13 11:13:33;;;;;;;87.32;25.90;;;;;;;3.13;100.00;104035.81;5046122;28;20854;-74
2022/01/13 11:15:59;;;;;;;86.68;25.17;;;;;;;3.26;100.00;104034.41;5040769;28;20524;-74
2022/01/13 11:18:30;;;;;;;83.60;26.85;;;;;;;3.22;100.00;104033.09;5061665;28;20127;-74